Terminal Aerodrome Forecast
Issued by NWS

Home | Current Version | Previous Version | Text Only | Print | Product List | Glossary On
Versions: 1 2 3 4 5 6 7 8 9 10 11 12 13 14
818
FTUS45 KFGZ 281859 AAA
TAFGCN
TAF AMD
KGCN 281859Z 2819/2918 03011KT P6SM FEW040 SCT060
     FM290100 03008KT P6SM SKC
     FM291600 03013KT P6SM SKC=

USA.gov is the U.S. government's official web portal to all federal, state and local government web resources and services.